Terminal Aerodrome Forecast
Issued by NWS North Platte, NE

Home | Current Version | Previous Version | Text Only | Print | Product List | Glossary On
Versions: 1 2 3 4 5 6 7 8 9 10 11 12
000
FTUS43 KLBF 222300
TAFVTN
TAF
KVTN 222320Z 2300/2324 20009KT P6SM SCT120 OVC200
     FM230400 12009KT P6SM -TSRA OVC050CB
      TEMPO 2305/2309 VRB35KT 1SM +TSRA OVC020CB
     FM230900 VRB06KT 3SM TSRA BR OVC020CB
     FM231300 15010KT P6SM OVC030
     FM231600 17010KT P6SM SCT050=

USA.gov is the U.S. government's official web portal to all federal, state and local government web resources and services.